Pagina principale
METAR-TAF:

METAR-TAF

Aeroporti :

Aeroporto di Recife-Guararapes-Gilberto Freyre

Recife, Pernambuco, Brasile

latitudine: 08-08S, longitudine: 034-55W, altezza: 19 m

Osservazione

Il bollettino è stato emesso 19 minuti fa, alle 15:00 UTC
Vento 11 kt da est
Temperature 30°C
Umidità 70%
Pressione 1015 hPa
Visibilità 10 km o più
Nubi sparse ad un'altezza di 2100 ft

METAR: SBRF 201500Z 09011KT 9999 SCT021 30/24 Q1015

Ora: 12:19 (15:19 UTC)

Previsione

Il bollettino è stato emesso 5 ore e 19 minuti fa, alle 10:00 UTC
Previsione valida dal 20 alle 12 UTC al 21 alle 12 UTC
Vento 10 kt da sud-est
Visibilità: 8000 m
Nubi sparse ad un'altezza di 1800 ft

TAF: SBRF 201000Z 2012/2112 13010KT 8000 SCT018 TX30/2014Z TN26/2108Z RMK PEU

Osservazioni e previsioni meteorologiche di più di 4000 aeroporti (messaggi METAR e TAF).

Le stazioni disponibili sono rappresentate dai dischi gialli e rossi sulla carta.

Puntare il mouse per vedere il nome della stazione.

Clicca sopra per visualizzare le osservazioni e previsioni meteorologiche.

Per cambiare la mappa : fare clic sui pulsanti verdi con una croce nera per ingrandire, il pulsante verde con un trattino per diminuire, o sulla freccia verde per le mappe adiacenti.


METAR-TAF: